createdAt,value
2022-12-29T00:00:06.564Z,72.38
2022-12-29T00:02:39.337Z,72.45
2022-12-29T00:05:06.497Z,72.79
2022-12-29T00:07:32.901Z,72.47
2022-12-29T00:09:59.309Z,72.47
2022-12-29T00:12:25.748Z,72.88
2022-12-29T00:15:10.754Z,72.54
2022-12-29T00:17:37.134Z,72.26
2022-12-29T00:20:39.277Z,73.01
2022-12-29T00:23:24.363Z,72.67
2022-12-29T00:26:09.220Z,72.26
2022-12-29T00:28:54.012Z,72.58
2022-12-29T00:31:38.856Z,72.03
2022-12-29T00:34:23.966Z,71.47
2022-12-29T00:36:50.475Z,71.84
2022-12-29T00:39:37.997Z,71.94
2022-12-29T00:42:27.781Z,71.25
2022-12-29T00:44:54.319Z,71.66
2022-12-29T00:47:20.849Z,70.69
2022-12-29T00:49:47.307Z,70.75
2022-12-29T00:52:14.605Z,71.35
2022-12-29T00:54:42.106Z,70.81
2022-12-29T00:57:10.675Z,70.98
2022-12-29T00:59:38.849Z,71.13
2022-12-29T01:02:06.211Z,70.17
2022-12-29T01:04:33.098Z,71.04
2022-12-29T01:06:59.604Z,70.26
2022-12-29T01:09:44.780Z,69.65
2022-12-29T01:12:12.057Z,70.20
2022-12-29T01:14:39.346Z,70.66
2022-12-29T01:17:06.644Z,69.62
2022-12-29T01:19:33.824Z,69.58
2022-12-29T01:22:00.802Z,69.10
2022-12-29T01:24:28.187Z,68.22
2022-12-29T01:26:55.480Z,68.93
2022-12-29T01:29:22.374Z,68.64
2022-12-29T01:31:50.479Z,68.13
2022-12-29T01:34:17.207Z,68.81
2022-12-29T01:36:44.846Z,69.05
2022-12-29T01:39:12.857Z,69.13
2022-12-29T01:41:41.005Z,68.60
2022-12-29T01:44:44.432Z,68.85
2022-12-29T01:47:11.551Z,68.28
2022-12-29T01:49:38.252Z,68.45
2022-12-29T01:52:08.912Z,68.78
2022-12-29T01:54:40.532Z,68.33
2022-12-29T01:57:14.400Z,67.77
2022-12-29T01:59:51.010Z,67.71
2022-12-29T02:02:18.046Z,67.45
2022-12-29T02:04:45.288Z,68.36
2022-12-29T02:07:19.239Z,67.74
2022-12-29T02:09:49.052Z,67.94
2022-12-29T02:12:17.333Z,67.49
2022-12-29T02:14:45.408Z,67.45
2022-12-29T02:17:44.489Z,67.98
2022-12-29T02:20:38.994Z,67.56
2022-12-29T02:23:43.834Z,67.42
2022-12-29T02:26:38.132Z,68.08
2022-12-29T02:29:46.355Z,68.35
2022-12-29T02:32:50.230Z,68.56
2022-12-29T02:35:36.803Z,68.84
2022-12-29T02:38:21.494Z,68.25
2022-12-29T02:41:06.801Z,68.58
2022-12-29T02:43:41.159Z,68.74
2022-12-29T02:46:20.531Z,68.10
2022-12-29T02:48:53.942Z,68.23
2022-12-29T02:51:27.361Z,68.13
2022-12-29T02:54:14.967Z,68.18
2022-12-29T02:56:41.388Z,68.37
2022-12-29T02:59:08.799Z,68.76
2022-12-29T03:01:38.245Z,67.66
2022-12-29T03:04:23.915Z,68.25
2022-12-29T03:07:13.214Z,67.99
2022-12-29T03:09:51.828Z,68.17
2022-12-29T03:13:09.538Z,67.72
2022-12-29T03:16:03.286Z,67.51
2022-12-29T03:18:46.821Z,67.48
2022-12-29T03:21:43.674Z,67.96
2022-12-29T03:24:11.841Z,67.28
2022-12-29T03:26:38.771Z,67.90
2022-12-29T03:29:08.810Z,67.30
2022-12-29T03:31:38.247Z,67.48
2022-12-29T03:34:07.552Z,67.84
2022-12-29T03:36:44.936Z,67.11
2022-12-29T03:39:14.402Z,67.46
2022-12-29T03:41:45.477Z,67.45
2022-12-29T03:44:13.866Z,67.07
2022-12-29T03:46:40.978Z,66.42
2022-12-29T03:49:07.648Z,66.82
2022-12-29T03:51:34.104Z,66.96
2022-12-29T03:54:00.935Z,67.01
2022-12-29T03:56:27.368Z,66.78
2022-12-29T03:58:54.004Z,66.74
2022-12-29T04:01:29.038Z,66.87
2022-12-29T04:03:55.621Z,66.43
2022-12-29T04:06:22.073Z,66.98
2022-12-29T04:09:00.725Z,66.45
2022-12-29T04:11:33.060Z,66.88
2022-12-29T04:14:01.612Z,66.46
2022-12-29T04:16:30.251Z,66.44
2022-12-29T04:18:57.228Z,66.45
2022-12-29T04:21:23.661Z,66.37
2022-12-29T04:23:50.059Z,66.45
2022-12-29T04:26:17.409Z,66.71
2022-12-29T04:28:53.191Z,66.70
2022-12-29T04:31:33.930Z,66.66
2022-12-29T04:34:01.507Z,66.49
2022-12-29T04:36:30.230Z,66.18
2022-12-29T04:38:57.595Z,66.41
2022-12-29T04:41:24.616Z,66.46
2022-12-29T04:43:51.776Z,66.10
2022-12-29T04:46:50.869Z,66.55
2022-12-29T04:49:29.256Z,66.10
2022-12-29T04:52:21.149Z,66.59
2022-12-29T04:54:47.759Z,66.51
2022-12-29T04:57:18.416Z,66.88
2022-12-29T04:59:50.213Z,66.65
2022-12-29T05:02:17.739Z,66.98
2022-12-29T05:04:47.280Z,67.04
2022-12-29T05:07:15.263Z,66.75
2022-12-29T05:09:43.377Z,67.47
2022-12-29T05:12:10.752Z,67.28
2022-12-29T05:14:45.099Z,66.91
2022-12-29T05:17:11.637Z,67.11
2022-12-29T05:19:39.159Z,67.32
2022-12-29T05:22:06.335Z,67.50
2022-12-29T05:24:34.280Z,68.07
2022-12-29T05:27:01.105Z,67.65
2022-12-29T05:29:46.195Z,67.96
2022-12-29T05:32:12.913Z,68.78
2022-12-29T05:34:39.490Z,68.68
2022-12-29T05:37:06.283Z,68.11
2022-12-29T05:39:32.811Z,68.10
2022-12-29T05:42:01.637Z,68.84
2022-12-29T05:44:38.111Z,69.37
2022-12-29T05:47:16.904Z,68.96
2022-12-29T05:49:56.245Z,69.47
2022-12-29T05:52:52.018Z,68.82
2022-12-29T05:55:19.361Z,69.27
2022-12-29T05:57:50.798Z,69.24
2022-12-29T06:00:17.739Z,69.60
2022-12-29T06:02:46.879Z,69.40
2022-12-29T06:05:15.531Z,70.18
2022-12-29T06:07:42.026Z,70.06
2022-12-29T06:10:09.256Z,69.98
2022-12-29T06:12:49.851Z,69.93
2022-12-29T06:15:16.613Z,69.53
2022-12-29T06:17:44.468Z,69.96
2022-12-29T06:20:11.695Z,70.43
2022-12-29T06:22:38.285Z,70.55
2022-12-29T06:25:06.330Z,71.48
2022-12-29T06:27:34.512Z,70.68
2022-12-29T06:30:00.983Z,71.00
2022-12-29T06:32:28.256Z,71.82
2022-12-29T06:35:00.424Z,70.86
2022-12-29T06:37:27.229Z,71.66
2022-12-29T06:39:53.770Z,71.82
2022-12-29T06:42:20.744Z,72.08
2022-12-29T06:44:50.242Z,72.23
2022-12-29T06:47:16.930Z,72.52
2022-12-29T06:49:43.327Z,72.68
2022-12-29T06:52:12.986Z,72.38
2022-12-29T06:54:39.741Z,72.98
2022-12-29T06:57:06.348Z,72.71
2022-12-29T06:59:32.841Z,73.80
2022-12-29T07:01:59.361Z,73.24
2022-12-29T07:04:25.995Z,73.61
2022-12-29T07:06:52.375Z,73.96
2022-12-29T07:09:18.752Z,73.02
2022-12-29T07:11:45.178Z,73.57
2022-12-29T07:14:12.479Z,73.70
2022-12-29T07:16:39.393Z,73.96
2022-12-29T07:19:05.888Z,73.76
2022-12-29T07:21:32.381Z,74.23
2022-12-29T07:23:58.755Z,74.53
2022-12-29T07:26:25.294Z,73.62
2022-12-29T07:28:51.769Z,73.98
2022-12-29T07:31:20.621Z,74.24
2022-12-29T07:33:48.536Z,73.96
2022-12-29T07:38:43.610Z,75.18
2022-12-29T07:41:10.407Z,74.58
2022-12-29T07:43:37.040Z,74.97
2022-12-29T07:46:54.341Z,75.64
2022-12-29T07:49:09.872Z,75.59
2022-12-29T07:51:36.347Z,75.76
2022-12-29T07:54:02.883Z,75.95
2022-12-29T07:56:29.375Z,76.45
2022-12-29T07:58:55.884Z,76.65
2022-12-29T08:01:24.320Z,76.80
2022-12-29T08:03:56.802Z,77.44
2022-12-29T08:06:23.920Z,77.69
2022-12-29T08:08:50.467Z,78.42
2022-12-29T08:11:17.002Z,77.71
2022-12-29T08:13:43.414Z,77.98
2022-12-29T08:16:10.005Z,78.22
2022-12-29T08:18:36.531Z,78.92
2022-12-29T08:21:05.177Z,78.52
2022-12-29T08:23:31.890Z,79.16
2022-12-29T08:26:03.948Z,78.54
2022-12-29T08:28:31.014Z,79.00
2022-12-29T08:31:01.862Z,79.49
2022-12-29T08:33:28.985Z,79.36
2022-12-29T08:36:07.358Z,79.58
2022-12-29T08:38:34.130Z,79.29
2022-12-29T08:41:02.380Z,79.66
2022-12-29T08:43:29.363Z,79.49
2022-12-29T08:45:57.027Z,80.49
2022-12-29T08:48:23.569Z,79.50
2022-12-29T08:50:50.848Z,80.18
2022-12-29T08:53:18.818Z,79.61
2022-12-29T08:55:47.168Z,79.23
2022-12-29T08:58:15.475Z,79.23
2022-12-29T09:00:43.514Z,79.66
2022-12-29T09:03:10.582Z,79.30
2022-12-29T09:05:37.441Z,78.98
2022-12-29T09:08:05.216Z,78.33
2022-12-29T09:10:31.797Z,77.89
2022-12-29T09:12:58.233Z,77.43
2022-12-29T09:15:24.683Z,76.21
2022-12-29T09:17:51.135Z,76.48
2022-12-29T09:20:19.761Z,75.94
2022-12-29T09:22:47.386Z,75.65
2022-12-29T09:25:14.156Z,75.26
2022-12-29T09:27:41.140Z,74.94
2022-12-29T09:30:10.281Z,74.44
2022-12-29T09:32:42.018Z,74.41
2022-12-29T09:35:10.257Z,74.26
2022-12-29T09:37:37.141Z,73.77
2022-12-29T09:40:04.767Z,74.40
2022-12-29T09:43:05.894Z,73.93
2022-12-29T09:45:44.585Z,73.33
2022-12-29T09:48:26.891Z,73.76
2022-12-29T09:50:57.892Z,73.52
2022-12-29T09:53:38.968Z,73.10
2022-12-29T09:56:11.352Z,73.14
2022-12-29T09:58:45.886Z,72.74
2022-12-29T10:01:41.597Z,72.93
2022-12-29T10:04:08.577Z,72.38
2022-12-29T10:10:03.541Z,72.42
2022-12-29T10:13:11.955Z,72.72
2022-12-29T10:16:10.622Z,73.33
2022-12-29T10:18:46.067Z,73.34
2022-12-29T10:21:27.934Z,73.73
2022-12-29T10:23:54.703Z,73.77
2022-12-29T10:26:25.001Z,73.47
2022-12-29T10:28:59.641Z,73.74
2022-12-29T10:31:44.876Z,73.81
2022-12-29T10:34:21.628Z,73.19
2022-12-29T10:36:51.760Z,73.25
2022-12-29T10:39:22.652Z,73.39
2022-12-29T10:41:58.985Z,72.45
2022-12-29T10:44:30.718Z,73.14
2022-12-29T10:47:06.884Z,72.56
2022-12-29T10:49:41.048Z,72.29
2022-12-29T10:52:09.912Z,72.53
2022-12-29T10:54:56.877Z,72.55
2022-12-29T10:57:37.262Z,72.47
2022-12-29T11:00:24.632Z,73.07
2022-12-29T11:03:16.052Z,73.38
2022-12-29T11:06:01.068Z,73.26
2022-12-29T11:08:34.301Z,73.19
2022-12-29T11:11:04.184Z,73.86
2022-12-29T11:13:38.551Z,74.04
2022-12-29T11:16:05.761Z,74.06
2022-12-29T11:18:40.753Z,73.77
2022-12-29T11:21:28.143Z,74.34
2022-12-29T11:26:35.249Z,74.57
2022-12-29T11:29:17.176Z,74.81
2022-12-29T11:31:44.723Z,75.28
2022-12-29T11:34:19.399Z,75.28
2022-12-29T11:36:46.979Z,75.82
2022-12-29T11:39:30.078Z,76.45
2022-12-29T11:41:57.027Z,76.46
2022-12-29T11:44:24.127Z,76.48
2022-12-29T11:46:53.285Z,76.38
2022-12-29T11:49:27.748Z,76.86
2022-12-29T11:51:58.476Z,76.63
2022-12-29T11:54:30.754Z,76.88
2022-12-29T11:56:58.945Z,76.63
2022-12-29T11:59:52.846Z,76.64
2022-12-29T12:02:43.655Z,76.79
2022-12-29T12:05:42.258Z,76.70
2022-12-29T12:08:27.426Z,77.59
2022-12-29T12:10:59.780Z,78.37
2022-12-29T12:13:35.722Z,77.74
2022-12-29T12:16:23.660Z,77.94
2022-12-29T12:19:00.040Z,77.84
2022-12-29T12:21:41.774Z,77.82
2022-12-29T12:24:20.362Z,78.07
2022-12-29T12:27:34.913Z,78.04
2022-12-29T12:30:10.359Z,77.75
2022-12-29T12:32:43.823Z,77.84
2022-12-29T12:35:50.238Z,77.08
2022-12-29T12:38:40.156Z,77.68
2022-12-29T12:41:22.032Z,77.59
2022-12-29T12:44:44.877Z,77.71
2022-12-29T12:47:26.920Z,77.27
2022-12-29T12:50:00.486Z,77.09
2022-12-29T12:52:53.104Z,77.12
2022-12-29T12:55:39.978Z,77.34
2022-12-29T12:58:37.207Z,77.84
2022-12-29T13:01:37.580Z,77.83
2022-12-29T13:04:49.381Z,78.43
2022-12-29T13:07:24.579Z,78.54
2022-12-29T13:10:02.537Z,79.36
2022-12-29T13:12:53.393Z,80.05
2022-12-29T13:15:38.584Z,80.67
2022-12-29T13:18:10.906Z,81.65
2022-12-29T13:20:44.794Z,82.28
2022-12-29T13:23:28.018Z,82.40
2022-12-29T13:26:19.882Z,82.80
2022-12-29T13:29:11.271Z,83.31
2022-12-29T13:32:09.109Z,83.80
2022-12-29T13:34:50.068Z,83.96
2022-12-29T13:37:21.406Z,83.92
2022-12-29T13:39:57.347Z,84.05
2022-12-29T13:42:25.863Z,84.31
2022-12-29T13:45:00.514Z,84.48
2022-12-29T13:47:42.405Z,84.95
2022-12-29T13:50:19.283Z,85.40
2022-12-29T13:52:45.665Z,85.29
2022-12-29T13:55:30.625Z,85.21
2022-12-29T13:58:20.898Z,85.38
2022-12-29T14:00:56.343Z,85.45
2022-12-29T14:03:44.262Z,85.49
2022-12-29T14:06:30.496Z,85.45
2022-12-29T14:09:02.777Z,85.52
2022-12-29T14:11:36.133Z,85.60
2022-12-29T14:14:15.297Z,85.54
2022-12-29T14:16:43.740Z,85.59
2022-12-29T14:19:18.066Z,85.49
2022-12-29T14:22:04.259Z,85.06
2022-12-29T14:24:33.811Z,84.98
2022-12-29T14:27:00.284Z,85.04
2022-12-29T14:29:26.640Z,84.99
2022-12-29T14:31:53.821Z,84.83
2022-12-29T14:34:29.094Z,84.96
2022-12-29T14:36:59.058Z,84.90
2022-12-29T14:40:02.839Z,85.08
2022-12-29T14:42:30.862Z,85.46
2022-12-29T14:45:26.988Z,85.52
2022-12-29T14:47:54.964Z,85.54
2022-12-29T14:50:37.973Z,85.49
2022-12-29T14:53:07.145Z,85.48
2022-12-29T14:55:41.237Z,84.93
2022-12-29T14:58:19.405Z,84.57
2022-12-29T15:00:46.768Z,84.50
2022-12-29T15:03:30.560Z,84.09
2022-12-29T15:06:09.169Z,84.11
2022-12-29T15:08:40.540Z,83.82
2022-12-29T15:11:12.271Z,83.87
2022-12-29T15:13:43.211Z,83.80
2022-12-29T15:16:31.313Z,83.93
2022-12-29T15:18:58.356Z,84.05
2022-12-29T15:21:31.460Z,83.98
2022-12-29T15:23:58.272Z,84.09
2022-12-29T15:26:37.730Z,84.34
2022-12-29T15:29:04.193Z,84.47
2022-12-29T15:31:31.213Z,84.43
2022-12-29T15:34:12.504Z,84.68
2022-12-29T15:36:41.158Z,84.74
2022-12-29T15:39:34.309Z,84.92
2022-12-29T15:42:06.933Z,85.08
2022-12-29T15:44:42.007Z,84.86
2022-12-29T15:47:18.934Z,85.08
2022-12-29T15:49:50.111Z,85.39
2022-12-29T15:52:24.644Z,85.42
2022-12-29T15:54:53.331Z,85.65
2022-12-29T15:57:33.264Z,85.41
2022-12-29T16:00:01.088Z,85.47
2022-12-29T16:02:28.684Z,85.62
2022-12-29T16:07:53.514Z,85.67
2022-12-29T16:10:27.783Z,85.42
2022-12-29T16:12:54.326Z,85.87
2022-12-29T16:15:20.944Z,85.55
2022-12-29T16:17:54.269Z,85.74
2022-12-29T16:20:41.905Z,85.09
2022-12-29T16:23:20.479Z,84.70
2022-12-29T16:25:47.739Z,84.75
2022-12-29T16:28:20.908Z,84.61
2022-12-29T16:30:47.790Z,84.35
2022-12-29T16:33:36.187Z,84.55
2022-12-29T16:36:02.608Z,84.12
2022-12-29T16:38:35.038Z,84.24
2022-12-29T16:41:03.423Z,83.77
2022-12-29T16:43:42.759Z,83.49
2022-12-29T16:46:30.172Z,83.49
2022-12-29T16:48:58.123Z,83.20
2022-12-29T16:51:37.376Z,83.56
2022-12-29T16:54:05.170Z,83.73
2022-12-29T16:56:35.339Z,83.45
2022-12-29T16:59:09.414Z,83.59
2022-12-29T17:01:38.636Z,83.36
2022-12-29T17:04:13.604Z,83.81
2022-12-29T17:06:41.139Z,83.68
2022-12-29T17:09:20.567Z,83.96
2022-12-29T17:12:01.643Z,83.57
2022-12-29T17:14:56.284Z,84.14
2022-12-29T17:17:43.499Z,84.01
2022-12-29T17:20:19.188Z,84.42
2022-12-29T17:22:46.042Z,84.36
2022-12-29T17:25:14.772Z,84.72
2022-12-29T17:27:51.299Z,84.87
2022-12-29T17:30:21.148Z,84.23
2022-12-29T17:33:02.465Z,84.51
2022-12-29T17:35:28.983Z,84.53
2022-12-29T17:37:55.544Z,84.24
2022-12-29T17:40:28.672Z,84.66
2022-12-29T17:42:57.538Z,84.61
2022-12-29T17:45:27.245Z,84.01
2022-12-29T17:47:54.218Z,84.17
2022-12-29T17:50:23.951Z,84.54
2022-12-29T17:53:01.042Z,83.94
2022-12-29T17:55:36.832Z,84.12
2022-12-29T17:58:25.234Z,84.16
2022-12-29T18:00:54.819Z,84.23
2022-12-29T18:03:29.358Z,84.21
2022-12-29T18:05:57.415Z,84.49
2022-12-29T18:08:23.846Z,84.36
2022-12-29T18:10:54.961Z,84.25
2022-12-29T18:13:25.909Z,84.34
2022-12-29T18:15:54.695Z,83.99
2022-12-29T18:18:24.166Z,84.03
2022-12-29T18:20:53.724Z,84.13
2022-12-29T18:23:23.484Z,84.00
2022-12-29T18:26:00.544Z,84.13
2022-12-29T18:28:27.995Z,83.85
2022-12-29T18:30:56.479Z,84.39
2022-12-29T18:33:26.403Z,84.13
2022-12-29T18:35:59.203Z,83.67
2022-12-29T18:38:26.126Z,83.83
2022-12-29T18:40:53.201Z,83.60
2022-12-29T18:43:20.512Z,83.77
2022-12-29T18:45:47.048Z,84.14
2022-12-29T18:48:14.729Z,83.86
2022-12-29T18:50:41.502Z,83.71
2022-12-29T18:53:16.302Z,83.59
2022-12-29T18:55:42.686Z,83.81
2022-12-29T18:58:09.105Z,83.96
2022-12-29T19:00:35.562Z,83.93
2022-12-29T19:03:02.099Z,83.74
2022-12-29T19:05:36.610Z,83.77
2022-12-29T19:08:03.462Z,83.70
2022-12-29T19:10:30.369Z,83.53
2022-12-29T19:12:56.787Z,83.79
2022-12-29T19:15:26.372Z,83.46
2022-12-29T19:18:32.371Z,83.46
2022-12-29T19:20:43.367Z,83.57
2022-12-29T19:23:13.284Z,83.66
2022-12-29T19:25:40.564Z,83.98
2022-12-29T19:28:10.263Z,83.93
2022-12-29T19:30:36.717Z,83.89
2022-12-29T19:33:09.658Z,84.13
2022-12-29T19:35:36.391Z,84.05
2022-12-29T19:38:03.518Z,84.08
2022-12-29T19:40:30.051Z,84.00
2022-12-29T19:42:57.043Z,83.81
2022-12-29T19:45:23.536Z,84.27
2022-12-29T19:47:50.291Z,83.99
2022-12-29T19:50:17.569Z,83.79
2022-12-29T19:52:44.971Z,84.06
2022-12-29T19:55:16.309Z,84.38
2022-12-29T19:57:43.169Z,84.61
2022-12-29T20:00:10.631Z,84.68
2022-12-29T20:02:40.518Z,84.96
2022-12-29T20:05:08.310Z,84.66
2022-12-29T20:07:35.187Z,84.44
2022-12-29T20:10:01.928Z,84.72
2022-12-29T20:12:29.466Z,84.58
2022-12-29T20:14:56.695Z,84.45
2022-12-29T20:17:53.943Z,84.95
2022-12-29T20:20:10.121Z,85.68
2022-12-29T20:22:36.859Z,85.90
2022-12-29T20:25:43.048Z,86.22
2022-12-29T20:27:49.864Z,86.21
2022-12-29T20:30:16.262Z,86.85
2022-12-29T20:32:42.722Z,86.83
2022-12-29T20:35:12.319Z,87.21
2022-12-29T20:37:38.768Z,87.77
2022-12-29T20:40:05.643Z,88.13
2022-12-29T20:42:32.047Z,88.09
2022-12-29T20:44:58.443Z,88.51
2022-12-29T20:47:24.866Z,88.81
2022-12-29T20:49:51.259Z,89.15
2022-12-29T20:52:17.674Z,89.64
2022-12-29T20:54:45.099Z,89.74
2022-12-29T20:57:11.708Z,89.82
2022-12-29T20:59:38.162Z,90.09
2022-12-29T21:02:04.963Z,89.85
2022-12-29T21:04:50.217Z,90.42
2022-12-29T21:07:20.205Z,90.50
2022-12-29T21:09:46.897Z,90.63
2022-12-29T21:12:13.403Z,90.11
2022-12-29T21:14:45.380Z,90.09
2022-12-29T21:17:12.352Z,90.58
2022-12-29T21:19:38.869Z,90.97
2022-12-29T21:22:05.324Z,90.70
2022-12-29T21:24:31.782Z,90.94
2022-12-29T21:26:58.260Z,91.30
2022-12-29T21:29:24.822Z,91.15
2022-12-29T21:31:51.273Z,91.59
2022-12-29T21:34:17.682Z,91.75
2022-12-29T21:36:45.257Z,91.83
2022-12-29T21:39:12.768Z,92.63
2022-12-29T21:41:39.207Z,91.77
2022-12-29T21:44:24.273Z,92.45
2022-12-29T21:46:50.737Z,92.19
2022-12-29T21:49:17.207Z,92.29
2022-12-29T21:51:54.119Z,93.49
2022-12-29T21:54:45.130Z,92.69
2022-12-29T21:57:19.353Z,93.27
2022-12-29T22:00:05.831Z,92.58
2022-12-29T22:02:54.327Z,93.15
2022-12-29T22:05:39.404Z,93.64
2022-12-29T22:08:24.247Z,93.96
2022-12-29T22:11:09.202Z,93.71
2022-12-29T22:13:38.886Z,94.40
2022-12-29T22:16:07.622Z,93.83
2022-12-29T22:18:34.303Z,94.28
2022-12-29T22:21:08.549Z,94.62
2022-12-29T22:23:37.286Z,94.28
2022-12-29T22:26:05.189Z,94.49
2022-12-29T22:28:31.850Z,94.62
2022-12-29T22:30:58.490Z,94.82
2022-12-29T22:33:25.007Z,94.80
2022-12-29T22:35:51.412Z,94.81
2022-12-29T22:38:17.810Z,94.49
2022-12-29T22:40:44.215Z,94.49
2022-12-29T22:43:13.292Z,93.82
2022-12-29T22:45:40.563Z,94.07
2022-12-29T22:48:08.591Z,93.95
2022-12-29T22:50:34.975Z,93.22
2022-12-29T22:53:01.384Z,94.07
2022-12-29T22:55:27.785Z,93.21
2022-12-29T22:57:54.224Z,93.11
2022-12-29T23:00:20.621Z,93.34
2022-12-29T23:02:47.250Z,93.80
2022-12-29T23:05:14.050Z,94.06
2022-12-29T23:07:40.670Z,94.13
2022-12-29T23:10:07.652Z,94.29
2022-12-29T23:12:34.179Z,94.61
2022-12-29T23:15:00.817Z,94.72
2022-12-29T23:17:27.572Z,94.72
2022-12-29T23:19:54.011Z,93.70
2022-12-29T23:22:20.757Z,94.61
2022-12-29T23:24:47.190Z,94.34
2022-12-29T23:27:13.890Z,93.66
2022-12-29T23:29:40.305Z,94.37
2022-12-29T23:32:06.732Z,93.91
2022-12-29T23:34:33.195Z,94.29
2022-12-29T23:36:59.662Z,94.72
2022-12-29T23:39:26.114Z,95.00
2022-12-29T23:41:52.766Z,94.35
2022-12-29T23:44:19.226Z,94.28
2022-12-29T23:46:46.077Z,94.54
2022-12-29T23:49:12.819Z,93.95
2022-12-29T23:51:39.337Z,94.09
2022-12-29T23:54:05.824Z,94.07
2022-12-29T23:56:32.367Z,94.03
2022-12-29T23:58:59.005Z,94.24
